Decoded Metar for LIBP (PESCARA in ITALY) (IATA:PSR) | Meteo·Mobile Aviation Weather
aviador You're here:

LIBP Decoded Metar

PESCARA in ITALY
Report Time2018-10-20 06:50:00
UTC Time2018-10-20 07:25:37
Flight Rules vfr VFR
Wind220° at 04 kt
W.Decomp.*RWY 22: 4.0 kt HW 0.1 kt LCW
W.Rank220° ranks 1
Current wind is below 220° avg. (6.5)
Visibility9999 m
Phenomena:N/A
Clouds:N/A
Expected CloudBase > 800 ft AGL from Temp-Dew spread
CeilingNone
Temp14°C (ISA -1)
Dew Point12°C (88% RH)
AAT13.2°C
QNH1022 hPa
Density Alt-190 ft
Elevation36 ft
Report Wrong Elevation
Raw Report
METAR LIBP 200650Z 22004KT CAVOK 14/12 Q1022=

Extra information for LIBP:More info

Metar Taf Metar & Taf Last 4 Metars F.Rules Stats Wind Profile Meteogram Temp Stats Airport Information Weather charts Add Link Nearby VenuesMetar ALERT Operation Metar Decoded Social comments